Time;durP1;ratioP1;P1;durP2;ratioP2;P2;SDS_P1;SDS_P2;PMS_P1;PMS_P2;Temp;Humidity;BMP_temperature;BMP_pressure;BME280_temperature;BME280_humidity;BME280_pressure;Samples;Min_cycle;Max_cycle;Signal;HPM_P1;HPM_P2
2022/07/09 00:01:10;;;;;;;2.20;1.67;;;;;;;23.51;100.00;99455.73;1709031;83;21883;-75
2022/07/09 00:03:41;;;;;;;2.80;1.52;;;;;;;23.45;100.00;99452.54;1708657;82;21393;-73
2022/07/09 00:06:10;;;;;;;5.10;1.67;;;;;;;23.40;100.00;99455.19;1708929;83;20880;-72
2022/07/09 00:08:37;;;;;;;4.45;2.00;;;;;;;23.41;100.00;99458.17;1710607;83;20966;-76
2022/07/09 00:11:07;;;;;;;2.95;1.75;;;;;;;23.33;100.00;99453.19;1708810;83;21003;-76
2022/07/09 00:13:35;;;;;;;4.03;2.40;;;;;;;23.27;100.00;99453.39;1708526;82;20948;-73
2022/07/09 00:16:05;;;;;;;5.25;2.45;;;;;;;23.21;100.00;99443.80;1708440;84;21028;-72
2022/07/09 00:18:34;;;;;;;4.25;2.15;;;;;;;23.15;100.00;99445.45;1708283;84;21098;-76
2022/07/09 00:21:05;;;;;;;4.20;2.10;;;;;;;23.23;100.00;99444.20;1713887;83;21026;-75
2022/07/09 00:23:32;;;;;;;5.40;2.42;;;;;;;23.37;100.00;99448.95;1714755;83;21049;-77
2022/07/09 00:26:04;;;;;;;5.50;2.00;;;;;;;23.48;100.00;99443.88;1714436;83;21537;-75
2022/07/09 00:28:34;;;;;;;4.80;2.22;;;;;;;23.38;100.00;99454.75;1714248;82;20906;-76
2022/07/09 00:31:01;;;;;;;6.00;2.50;;;;;;;23.42;100.00;99452.73;1710910;83;20857;-76
2022/07/09 00:33:34;;;;;;;5.65;2.52;;;;;;;23.39;100.00;99452.75;1710267;83;20953;-75
2022/07/09 00:36:03;;;;;;;4.90;2.40;;;;;;;23.51;100.00;99440.27;1710136;83;20989;-74
2022/07/09 00:38:31;;;;;;;4.85;2.87;;;;;;;23.48;100.00;99441.06;1708560;84;21509;-74
2022/07/09 00:40:59;;;;;;;7.58;2.90;;;;;;;23.39;100.00;99443.70;1708164;83;21001;-75
2022/07/09 00:43:26;;;;;;;5.55;3.27;;;;;;;23.38;100.00;99442.11;1708759;84;21564;-75
2022/07/09 00:45:53;;;;;;;7.55;2.83;;;;;;;23.39;100.00;99440.11;1708431;84;20955;-75
2022/07/09 00:48:21;;;;;;;8.60;2.62;;;;;;;23.33;100.00;99438.32;1708127;84;21047;-74
2022/07/09 00:50:48;;;;;;;7.97;2.30;;;;;;;23.38;100.00;99440.70;1708954;83;21109;-75
2022/07/09 00:53:21;;;;;;;3.30;2.52;;;;;;;23.41;100.00;99440.50;1730479;82;21017;-76
2022/07/09 00:55:47;;;;;;;4.45;1.92;;;;;;;23.44;100.00;99442.52;1744340;81;20914;-74
2022/07/09 00:58:16;;;;;;;5.33;2.35;;;;;;;23.42;100.00;99432.28;1743820;81;21114;-75
2022/07/09 01:00:46;;;;;;;4.05;2.60;;;;;;;23.37;100.00;99433.49;1714557;80;21031;-74
2022/07/09 01:03:14;;;;;;;8.70;2.67;;;;;;;23.34;100.00;99432.28;1710581;83;21138;-75
2022/07/09 01:05:41;;;;;;;6.92;1.90;;;;;;;23.32;100.00;99442.35;1710286;83;21000;-73
2022/07/09 01:08:10;;;;;;;4.30;2.17;;;;;;;23.32;100.00;99436.73;1708509;84;20968;-74
2022/07/09 01:10:38;;;;;;;3.90;2.40;;;;;;;23.33;100.00;99444.75;1709038;83;21043;-75
2022/07/09 01:13:05;;;;;;;3.52;1.98;;;;;;;23.34;100.00;99448.34;1720340;81;20915;-74
2022/07/09 01:15:35;;;;;;;5.22;2.25;;;;;;;23.35;100.00;99449.33;1732328;82;21058;-71
2022/07/09 01:18:05;;;;;;;4.42;2.20;;;;;;;23.39;100.00;99438.70;1710632;84;20979;-75
2022/07/09 01:20:35;;;;;;;6.72;1.87;;;;;;;23.40;100.00;99425.67;1704204;82;21054;-75
2022/07/09 01:23:05;;;;;;;2.80;1.98;;;;;;;23.33;100.00;99428.48;1734371;82;20959;-73
2022/07/09 01:25:37;;;;;;;2.58;1.92;;;;;;;23.29;100.00;99436.13;1734465;82;20922;-74
2022/07/09 01:28:09;;;;;;;6.42;2.50;;;;;;;23.28;100.00;99438.16;1706055;82;21120;-74
2022/07/09 01:30:38;;;;;;;4.12;2.17;;;;;;;23.26;100.00;99426.52;1734568;82;21534;-70
2022/07/09 01:33:08;;;;;;;2.70;2.15;;;;;;;23.21;100.00;99429.16;1734433;82;20974;-73
2022/07/09 01:35:37;;;;;;;6.00;3.35;;;;;;;23.16;100.00;99430.18;1734408;82;20990;-74
2022/07/09 01:38:04;;;;;;;8.75;4.42;;;;;;;23.12;100.00;99434.41;1730372;82;21068;-75
2022/07/09 01:40:33;;;;;;;5.87;3.30;;;;;;;23.17;100.00;99434.58;1734891;82;21741;-74
2022/07/09 01:43:01;;;;;;;6.78;3.85;;;;;;;23.06;100.00;99433.24;1734659;82;20855;-73
2022/07/09 01:45:31;;;;;;;7.42;3.70;;;;;;;23.23;100.00;99430.15;1734070;82;21435;-74
2022/07/09 01:48:04;;;;;;;6.45;3.50;;;;;;;23.12;100.00;99435.81;1732579;82;20947;-74
2022/07/09 01:50:33;;;;;;;6.35;2.80;;;;;;;23.22;100.00;99434.96;1732289;81;21119;-74
2022/07/09 01:53:01;;;;;;;7.20;2.58;;;;;;;23.20;100.00;99431.75;1734413;81;21134;-74
2022/07/09 01:55:31;;;;;;;3.58;2.55;;;;;;;23.22;100.00;99434.16;1736195;82;21376;-72
2022/07/09 01:57:59;;;;;;;7.70;2.42;;;;;;;23.19;100.00;99432.16;1708998;81;20906;-74
2022/07/09 02:00:28;;;;;;;6.67;2.45;;;;;;;23.15;100.00;99432.80;1734682;82;21026;-74
2022/07/09 02:02:56;;;;;;;3.92;2.50;;;;;;;23.12;100.00;99425.17;1734354;82;20994;-74
2022/07/09 02:05:22;;;;;;;5.35;2.40;;;;;;;23.02;100.00;99433.85;1734426;82;21333;-75
2022/07/09 02:07:50;;;;;;;6.30;2.50;;;;;;;23.05;100.00;99438.64;1733474;82;20955;-73
2022/07/09 02:10:17;;;;;;;4.12;2.45;;;;;;;23.00;100.00;99435.66;1736024;82;21038;-74
2022/07/09 02:12:44;;;;;;;4.08;2.25;;;;;;;22.93;100.00;99437.90;1733804;81;21547;-74
2022/07/09 02:15:13;;;;;;;4.37;2.08;;;;;;;22.86;100.00;99431.70;1721102;83;20949;-74
2022/07/09 02:17:43;;;;;;;3.00;1.90;;;;;;;22.84;100.00;99434.74;1718623;83;21904;-73
2022/07/09 02:20:14;;;;;;;3.10;2.08;;;;;;;22.86;100.00;99440.73;1715851;83;20899;-75
2022/07/09 02:22:42;;;;;;;4.83;1.65;;;;;;;22.98;100.00;99454.33;1719207;83;21066;-77
2022/07/09 02:25:09;;;;;;;3.10;1.77;;;;;;;22.91;100.00;99468.39;1719120;81;20983;-76
2022/07/09 02:27:36;;;;;;;4.95;2.60;;;;;;;22.97;100.00;99499.09;1719418;83;20979;-77
2022/07/09 02:30:05;;;;;;;4.70;2.27;;;;;;;23.06;100.00;99521.13;1718770;83;21485;-81
2022/07/09 02:32:32;;;;;;;5.75;2.40;;;;;;;23.13;100.00;99529.33;1718859;83;20935;-79
2022/07/09 02:35:00;;;;;;;6.15;2.72;;;;;;;23.21;100.00;99536.52;1719126;83;21498;-75
2022/07/09 02:37:27;;;;;;;6.53;2.85;;;;;;;23.26;100.00;99531.89;1719625;81;21031;-78
2022/07/09 02:39:54;;;;;;;5.83;2.77;;;;;;;23.30;100.00;99522.83;1715501;81;21002;-74
2022/07/09 02:42:24;;;;;;;5.70;2.25;;;;;;;23.27;100.00;99506.78;1714930;81;21049;-75
2022/07/09 02:44:56;;;;;;;4.45;2.33;;;;;;;23.27;100.00;99502.57;1716097;81;21043;-75
2022/07/09 02:47:25;;;;;;;3.62;2.08;;;;;;;23.26;100.00;99508.00;1715429;81;21060;-79
2022/07/09 02:49:51;;;;;;;4.87;2.30;;;;;;;23.27;100.00;99515.22;1716862;81;21053;-79
2022/07/09 02:52:19;;;;;;;3.75;2.85;;;;;;;23.34;100.00;99514.38;1716689;81;21078;-74
2022/07/09 02:54:49;;;;;;;2.55;2.00;;;;;;;23.34;100.00;99512.38;1719043;81;21067;-77
2022/07/09 02:57:15;;;;;;;3.42;2.15;;;;;;;23.33;100.00;99509.39;1719362;83;20974;-78
2022/07/09 02:59:42;;;;;;;2.45;2.00;;;;;;;23.35;100.00;99508.98;1718925;83;21046;-82
2022/07/09 03:02:10;;;;;;;2.45;2.00;;;;;;;23.36;100.00;99517.59;1716534;81;20931;-72
2022/07/09 03:04:38;;;;;;;2.47;2.27;;;;;;;23.40;100.00;99527.41;1716470;81;21055;-72
2022/07/09 03:07:05;;;;;;;3.58;2.25;;;;;;;23.38;100.00;99536.27;1718036;83;21066;-81
2022/07/09 03:09:36;;;;;;;6.58;2.20;;;;;;;23.41;100.00;99538.88;1713159;83;20939;-79
2022/07/09 03:12:11;;;;;;;3.37;2.20;;;;;;;23.43;100.00;99539.27;1719777;81;20991;-75
2022/07/09 03:14:40;;;;;;;5.87;2.17;;;;;;;23.43;100.00;99540.68;1715267;81;21007;-79
2022/07/09 03:17:08;;;;;;;5.55;2.80;;;;;;;23.43;100.00;99547.11;1718216;83;21046;-78
2022/07/09 03:19:37;;;;;;;7.33;2.75;;;;;;;23.43;100.00;99542.08;1719120;83;21113;-79
2022/07/09 03:22:06;;;;;;;4.53;2.60;;;;;;;23.46;100.00;99546.29;1719901;83;21384;-76
2022/07/09 03:24:34;;;;;;;4.30;2.58;;;;;;;23.44;100.00;99542.30;1720506;81;21026;-77
2022/07/09 03:27:02;;;;;;;4.17;2.35;;;;;;;23.43;100.00;99549.92;1719221;83;21086;-79
2022/07/09 03:29:28;;;;;;;4.35;2.30;;;;;;;23.40;100.00;99549.34;1719934;81;20872;-78
2022/07/09 03:31:57;;;;;;;1.77;1.67;;;;;;;23.38;100.00;99559.34;1720875;83;21109;-80
2022/07/09 03:34:24;;;;;;;5.40;1.90;;;;;;;23.39;100.00;99563.14;1720366;83;21014;-77
2022/07/09 03:36:50;;;;;;;3.67;2.35;;;;;;;23.42;100.00;99566.57;1719035;83;20971;-80
2022/07/09 03:39:19;;;;;;;5.30;2.85;;;;;;;23.42;100.00;99567.20;1718322;83;21004;-78
2022/07/09 03:41:48;;;;;;;5.67;2.30;;;;;;;23.45;100.00;99562.97;1720885;83;20923;-81
2022/07/09 03:44:16;;;;;;;4.50;2.12;;;;;;;23.43;100.00;99567.37;1720650;83;21140;-79
2022/07/09 03:46:45;;;;;;;2.87;1.98;;;;;;;23.47;100.00;99565.37;1720748;83;20986;-78
2022/07/09 03:49:12;;;;;;;5.40;2.30;;;;;;;23.49;100.00;99562.93;1720098;83;20900;-78
2022/07/09 03:51:39;;;;;;;3.15;1.95;;;;;;;23.47;100.00;99563.97;1718618;82;20979;-77
2022/07/09 03:54:05;;;;;;;5.87;2.33;;;;;;;23.46;100.00;99570.77;1718690;83;21011;-76
2022/07/09 03:56:33;;;;;;;3.77;2.12;;;;;;;23.49;100.00;99572.77;1720962;83;21235;-80
2022/07/09 03:59:02;;;;;;;6.12;2.12;;;;;;;23.52;100.00;99561.33;1720386;83;21027;-77
2022/07/09 04:01:29;;;;;;;3.05;1.90;;;;;;;23.51;100.00;99561.14;1683960;83;20955;-74
2022/07/09 04:03:56;;;;;;;4.35;2.08;;;;;;;23.52;100.00;99562.73;1718835;83;20983;-73
2022/07/09 04:06:24;;;;;;;8.18;2.17;;;;;;;23.56;100.00;99559.31;1691030;83;20991;-75
2022/07/09 04:08:52;;;;;;;5.60;2.15;;;;;;;23.62;100.00;99558.27;1720139;81;21790;-74
2022/07/09 04:11:19;;;;;;;3.60;2.20;;;;;;;23.55;100.00;99559.09;1720019;83;21507;-76
2022/07/09 04:13:45;;;;;;;8.48;2.42;;;;;;;23.49;100.00;99564.95;1720828;83;21547;-77
2022/07/09 04:16:14;;;;;;;3.37;2.15;;;;;;;23.43;100.00;99565.98;1719017;83;21443;-77
2022/07/09 04:18:43;;;;;;;3.87;2.00;;;;;;;23.36;100.00;99565.37;1718642;83;21049;-77
2022/07/09 04:21:10;;;;;;;4.78;2.17;;;;;;;23.37;100.00;99563.37;1719695;83;21247;-75
2022/07/09 04:23:36;;;;;;;4.20;2.05;;;;;;;23.34;100.00;99568.59;1718569;83;20995;-77
2022/07/09 04:26:04;;;;;;;3.60;2.58;;;;;;;23.30;100.00;99570.59;1720408;83;20999;-77
2022/07/09 04:28:31;;;;;;;2.75;2.17;;;;;;;23.26;100.00;99562.80;1720887;83;20986;-75
2022/07/09 04:30:58;;;;;;;3.33;2.47;;;;;;;23.21;100.00;99566.84;1719384;81;21499;-78
2022/07/09 04:33:24;;;;;;;6.47;2.25;;;;;;;23.15;100.00;99565.63;1718629;83;21367;-75
2022/07/09 04:35:52;;;;;;;4.92;2.70;;;;;;;23.12;100.00;99560.02;1717745;81;20927;-77
2022/07/09 04:38:19;;;;;;;2.77;2.35;;;;;;;23.04;100.00;99558.66;1718235;83;21003;-77
2022/07/09 04:40:46;;;;;;;5.53;2.67;;;;;;;23.05;100.00;99557.44;1718891;83;20971;-76
2022/07/09 04:43:13;;;;;;;3.05;2.45;;;;;;;23.07;100.00;99553.63;1718182;81;20959;-75
2022/07/09 04:45:39;;;;;;;4.67;2.62;;;;;;;23.08;100.00;99540.39;1718752;83;21101;-74
2022/07/09 04:48:07;;;;;;;5.37;2.55;;;;;;;23.00;100.00;99534.60;1720918;83;20975;-76
2022/07/09 04:50:36;;;;;;;4.28;2.87;;;;;;;22.95;100.00;99530.17;1720987;83;20915;-74
2022/07/09 04:53:03;;;;;;;4.30;2.62;;;;;;;22.88;100.00;99524.59;1715700;82;21007;-69
2022/07/09 04:55:32;;;;;;;5.53;3.02;;;;;;;22.80;100.00;99513.37;1720271;83;21030;-72
2022/07/09 04:58:03;;;;;;;4.60;2.22;;;;;;;22.78;100.00;99507.36;1721278;83;21088;-75
2022/07/09 05:00:30;;;;;;;11.90;2.52;;;;;;;22.82;100.00;99498.33;1720830;83;21199;-76
2022/07/09 05:02:56;;;;;;;16.95;3.92;;;;;;;22.91;100.00;99487.27;1714954;83;21015;-76
2022/07/09 05:05:23;;;;;;;8.90;3.62;;;;;;;22.95;100.00;99475.41;1719650;83;20852;-74
2022/07/09 05:07:49;;;;;;;8.25;3.08;;;;;;;22.89;100.00;99465.21;1718833;83;20923;-74
2022/07/09 05:10:16;;;;;;;6.33;3.40;;;;;;;22.89;100.00;99461.00;1719010;83;21742;-76
2022/07/09 05:12:44;;;;;;;5.67;3.85;;;;;;;22.90;100.00;99449.14;1718815;83;20962;-70
2022/07/09 05:15:11;;;;;;;10.00;3.67;;;;;;;22.87;100.00;99442.34;1709588;82;21397;-72
2022/07/09 05:17:39;;;;;;;9.00;3.55;;;;;;;22.85;100.00;99430.72;1710468;83;20963;-74
2022/07/09 05:20:09;;;;;;;10.13;4.60;;;;;;;22.83;100.00;99421.89;1710632;83;20971;-74
2022/07/09 05:22:38;;;;;;;9.33;4.33;;;;;;;22.77;100.00;99415.91;1710937;84;21020;-76
2022/07/09 05:25:05;;;;;;;5.00;3.35;;;;;;;22.75;100.00;99402.88;1709870;83;21059;-76
2022/07/09 05:27:44;;;;;;;10.30;3.17;;;;;;;22.85;100.00;99404.84;1710000;83;21512;-74
2022/07/09 05:30:14;;;;;;;9.55;3.02;;;;;;;22.91;100.00;99399.59;1710282;83;21405;-70
2022/07/09 05:32:40;;;;;;;6.42;2.95;;;;;;;22.94;100.00;99388.16;1710820;84;20900;-74
2022/07/09 05:35:10;;;;;;;3.02;2.50;;;;;;;22.96;100.00;99389.33;1710467;83;21059;-77
2022/07/09 05:37:44;;;;;;;5.30;2.22;;;;;;;22.96;100.00;99380.12;1710372;82;20963;-77
2022/07/09 05:40:12;;;;;;;;;;;;;;;23.02;100.00;99381.88;1719158;82;20928;-72
2022/07/09 05:42:42;;;;;;;9.88;2.72;;;;;;;23.03;100.00;99377.26;1742653;81;20112;-75
2022/07/09 05:45:12;;;;;;;7.17;2.87;;;;;;;23.01;100.00;99370.47;1715277;83;20947;-72
2022/07/09 05:47:39;;;;;;;6.58;2.90;;;;;;;23.03;100.00;99370.23;1707580;82;21905;-75
2022/07/09 05:50:12;;;;;;;13.32;3.50;;;;;;;23.08;100.00;99369.81;1708501;84;21041;-75
2022/07/09 05:52:38;;;;;;;8.45;3.58;;;;;;;23.08;100.00;99369.81;1708550;82;20983;-76
2022/07/09 05:55:06;;;;;;;11.18;3.35;;;;;;;23.09;100.00;99367.22;1707914;82;21007;-75
2022/07/09 05:57:43;;;;;;;5.28;2.65;;;;;;;23.28;100.00;99361.47;1684660;85;21012;-75
2022/07/09 06:00:10;;;;;;;7.90;2.47;;;;;;;23.14;100.00;99356.14;1700290;83;21133;-74
2022/07/09 06:02:38;;;;;;;3.83;2.35;;;;;;;23.03;100.00;99351.98;1707853;83;21015;-75
2022/07/09 06:05:09;;;;;;;4.72;2.40;;;;;;;23.01;100.00;99355.83;1708516;84;21030;-73
2022/07/09 06:07:44;;;;;;;5.92;2.55;;;;;;;22.97;100.00;99355.84;1705137;82;21551;-71
2022/07/09 06:10:08;;;;;;;4.85;2.45;;;;;;;22.94;100.00;99362.88;1705669;82;21047;-73
2022/07/09 06:12:37;;;;;;;2.22;1.98;;;;;;;22.96;100.00;99351.42;1706186;82;21214;-70
2022/07/09 06:15:05;;;;;;;5.45;2.52;;;;;;;22.97;100.00;99352.22;1725194;81;21039;-74
2022/07/09 06:17:34;;;;;;;4.75;2.37;;;;;;;23.01;100.00;99348.00;1738420;81;20985;-79
2022/07/09 06:20:01;;;;;;;7.17;2.55;;;;;;;23.03;100.00;99344.18;1736845;82;20951;-74
2022/07/09 06:22:29;;;;;;;7.15;1.87;;;;;;;23.00;100.00;99350.00;1738766;81;20973;-72
2022/07/09 06:24:58;;;;;;;10.13;2.70;;;;;;;23.05;100.00;99352.97;1738646;82;21524;-72
2022/07/09 06:27:25;;;;;;;6.33;2.02;;;;;;;23.07;100.00;99353.37;1739040;82;21014;-72
2022/07/09 06:29:57;;;;;;;6.35;2.25;;;;;;;23.25;100.00;99349.06;1740460;82;21430;-73
2022/07/09 06:32:27;;;;;;;5.78;2.50;;;;;;;23.29;100.00;99349.02;1753580;81;20981;-75
2022/07/09 06:34:55;;;;;;;4.60;2.33;;;;;;;23.26;100.00;99340.00;1773798;81;21001;-74
2022/07/09 06:37:22;;;;;;;4.08;2.00;;;;;;;23.21;100.00;99349.08;1764345;81;21089;-77
2022/07/09 06:39:50;;;;;;;5.95;2.90;;;;;;;23.08;100.00;99357.17;1749457;81;21012;-76
2022/07/09 06:42:17;;;;;;;4.47;2.20;;;;;;;23.14;100.00;99366.57;1770579;81;20977;-77
2022/07/09 06:44:48;;;;;;;4.37;2.12;;;;;;;23.08;100.00;99365.59;1770117;80;20956;-73
2022/07/09 06:47:16;;;;;;;11.80;2.47;;;;;;;23.23;100.00;99377.55;1736571;82;20888;-76
2022/07/09 06:49:43;;;;;;;7.30;2.37;;;;;;;23.38;100.00;99380.88;1738923;82;21125;-74
2022/07/09 06:52:15;;;;;;;6.72;2.55;;;;;;;23.44;100.00;99380.68;1737550;81;20912;-78
2022/07/09 06:54:42;;;;;;;9.90;2.60;;;;;;;23.46;100.00;99391.69;1738600;82;20956;-77
2022/07/09 06:57:13;;;;;;;8.63;3.37;;;;;;;23.45;100.00;99397.73;1738420;82;21535;-79
2022/07/09 06:59:37;;;;;;;5.92;2.20;;;;;;;23.35;100.00;99395.94;1736973;82;20996;-76
2022/07/09 07:02:07;;;;;;;7.62;3.30;;;;;;;23.51;100.00;99389.67;1738561;82;21094;-76
2022/07/09 07:04:35;;;;;;;1.72;1.50;;;;;;;23.53;100.00;99386.63;1738373;82;20932;-73
2022/07/09 07:07:05;;;;;;;6.25;2.40;;;;;;;23.56;100.00;99380.80;1720562;82;20955;-75
2022/07/09 07:09:34;;;;;;;3.20;2.05;;;;;;;23.72;100.00;99376.04;1738674;81;20987;-77
2022/07/09 07:12:02;;;;;;;2.95;2.25;;;;;;;23.76;100.00;99377.42;1743608;81;21076;-79
2022/07/09 07:14:28;;;;;;;8.43;2.20;;;;;;;23.76;100.00;99374.01;1737982;82;21501;-78
2022/07/09 07:17:03;;;;;;;5.60;2.10;;;;;;;23.71;100.00;99365.39;1732024;82;21063;-73
2022/07/09 07:19:31;;;;;;;4.03;2.27;;;;;;;23.73;100.00;99353.72;1739088;82;21420;-78
2022/07/09 07:21:58;;;;;;;4.53;2.65;;;;;;;23.59;100.00;99361.06;1738385;82;20952;-76
2022/07/09 07:24:27;;;;;;;3.72;2.47;;;;;;;23.51;100.00;99374.20;1720147;82;21015;-80
2022/07/09 07:26:57;;;;;;;4.10;2.33;;;;;;;23.45;100.00;99375.23;1738722;82;21129;-77
2022/07/09 07:29:24;;;;;;;3.27;2.22;;;;;;;23.46;100.00;99381.85;1736928;82;21024;-74
2022/07/09 07:31:51;;;;;;;4.00;2.20;;;;;;;23.51;100.00;99390.45;1737232;82;21041;-76
2022/07/09 07:34:21;;;;;;;2.72;2.20;;;;;;;23.51;100.00;99384.83;1737709;82;20988;-77
2022/07/09 07:36:46;;;;;;;4.45;2.47;;;;;;;23.51;100.00;99377.80;1737580;82;20996;-77
2022/07/09 07:39:13;;;;;;;4.50;2.40;;;;;;;23.54;100.00;99371.97;1738337;82;21778;-76
2022/07/09 07:41:44;;;;;;;5.90;2.47;;;;;;;23.57;100.00;99371.95;1736269;82;20975;-77
2022/07/09 07:44:11;;;;;;;3.67;2.40;;;;;;;23.53;100.00;99371.16;1738870;82;20975;-72
2022/07/09 07:46:41;;;;;;;3.75;2.60;;;;;;;23.56;100.00;99364.71;1738338;82;20991;-75
2022/07/09 07:49:10;;;;;;;6.70;2.42;;;;;;;23.61;100.00;99359.87;1738701;82;20979;-76
2022/07/09 07:51:42;;;;;;;2.55;2.33;;;;;;;23.68;100.00;99341.52;1737782;81;20964;-76
2022/07/09 07:54:12;;;;;;;3.77;2.30;;;;;;;23.69;100.00;99342.53;1738718;82;21410;-75
2022/07/09 07:56:42;;;;;;;4.60;1.75;;;;;;;23.76;100.00;99334.64;1733097;81;21107;-73
2022/07/09 07:59:09;;;;;;;7.47;2.42;;;;;;;23.63;100.00;99339.95;1736495;82;21467;-76
2022/07/09 08:01:38;;;;;;;3.62;2.02;;;;;;;23.71;100.00;99339.30;1736926;82;21005;-74
2022/07/09 08:04:11;;;;;;;7.37;2.42;;;;;;;23.69;100.00;99334.70;1738161;81;21788;-75
2022/07/09 08:06:41;;;;;;;2.12;1.87;;;;;;;23.68;100.00;99326.86;1711775;82;21094;-79
2022/07/09 08:09:08;;;;;;;4.87;2.20;;;;;;;23.76;100.00;99321.17;1709364;84;21026;-71
2022/07/09 08:11:37;;;;;;;2.60;1.67;;;;;;;23.71;100.00;99317.59;1709931;84;21004;-71
2022/07/09 08:14:04;;;;;;;6.80;2.12;;;;;;;23.70;100.00;99319.41;1710899;84;20952;-77
2022/07/09 08:16:31;;;;;;;6.25;1.90;;;;;;;23.71;100.00;99314.00;1710300;84;21118;-75
2022/07/09 08:18:58;;;;;;;5.83;2.30;;;;;;;23.75;100.00;99318.97;1710466;84;20939;-73
2022/07/09 08:21:24;;;;;;;3.95;2.52;;;;;;;23.76;100.00;99316.36;1709681;84;21027;-74
2022/07/09 08:23:51;;;;;;;3.15;2.47;;;;;;;23.75;100.00;99323.18;1710058;84;21436;-76
2022/07/09 08:26:21;;;;;;;7.30;2.27;;;;;;;23.88;100.00;99312.83;1710356;84;20996;-74
2022/07/09 08:28:48;;;;;;;8.40;2.27;;;;;;;23.90;100.00;99316.03;1709999;83;21035;-70
2022/07/09 08:31:16;;;;;;;5.05;2.40;;;;;;;23.93;100.00;99320.81;1710114;84;21038;-73
2022/07/09 08:33:45;;;;;;;4.58;1.95;;;;;;;23.93;100.00;99318.00;1710235;84;21062;-72
2022/07/09 08:36:17;;;;;;;9.50;1.90;;;;;;;23.96;100.00;99322.79;1710654;83;21475;-74
2022/07/09 08:38:47;;;;;;;3.15;1.92;;;;;;;23.98;100.00;99321.77;1710621;83;21014;-73
2022/07/09 08:41:15;;;;;;;6.58;1.90;;;;;;;24.08;100.00;99320.05;1710653;84;21935;-75
2022/07/09 08:43:44;;;;;;;8.05;2.50;;;;;;;24.22;100.00;99327.58;1710569;84;20992;-75
2022/07/09 08:46:14;;;;;;;5.40;1.80;;;;;;;24.23;100.00;99315.70;1711508;83;20955;-81
2022/07/09 08:48:41;;;;;;;2.77;1.72;;;;;;;24.39;100.00;99312.31;1710512;84;21010;-78
2022/07/09 08:51:13;;;;;;;4.95;1.92;;;;;;;24.44;100.00;99307.63;1692834;82;20979;-74
2022/07/09 08:53:42;;;;;;;3.87;1.92;;;;;;;24.51;100.00;99304.72;1710626;84;21241;-78
2022/07/09 08:56:11;;;;;;;6.50;1.80;;;;;;;24.61;100.00;99305.80;1710829;83;21035;-74
2022/07/09 08:58:39;;;;;;;5.72;1.87;;;;;;;24.59;100.00;99301.80;1710617;83;20979;-73
2022/07/09 09:01:09;;;;;;;6.72;2.02;;;;;;;24.76;100.00;99303.59;1710389;84;21084;-76
2022/07/09 09:03:37;;;;;;;5.42;2.47;;;;;;;24.85;100.00;99303.67;1710940;84;20971;-74
2022/07/09 09:06:06;;;;;;;3.60;1.77;;;;;;;24.80;100.00;99302.91;1692536;84;21263;-79
2022/07/09 09:08:36;;;;;;;4.67;1.95;;;;;;;24.83;100.00;99307.52;1710748;84;21456;-78
2022/07/09 09:11:07;;;;;;;4.92;2.33;;;;;;;24.90;100.00;99307.42;1710554;83;21032;-74
2022/07/09 09:13:45;;;;;;;8.65;1.87;;;;;;;24.92;100.00;99312.06;1710931;84;20879;-70
2022/07/09 09:16:13;;;;;;;6.33;1.70;;;;;;;24.87;100.00;99309.69;1692837;84;21024;-75
2022/07/09 09:18:42;;;;;;;5.65;1.60;;;;;;;24.96;100.00;99306.38;1685740;85;21743;-72
2022/07/09 09:21:10;;;;;;;3.77;1.50;;;;;;;25.00;100.00;99302.88;1685699;85;20969;-73
2022/07/09 09:23:41;;;;;;;2.90;1.72;;;;;;;25.06;100.00;99300.39;1685719;84;21537;-71
2022/07/09 09:26:13;;;;;;;4.75;1.65;;;;;;;25.08;100.00;99296.54;1686094;85;21001;-75
2022/07/09 09:29:04;;;;;;;3.40;1.80;;;;;;;25.09;100.00;99298.13;1685986;85;21044;-75
2022/07/09 09:31:38;;;;;;;4.72;1.67;;;;;;;25.05;100.00;99291.13;1686110;84;21748;-73
2022/07/09 09:34:15;;;;;;;3.72;1.90;;;;;;;25.10;100.00;99291.25;1685805;84;21521;-71
2022/07/09 09:36:44;;;;;;;3.87;1.90;;;;;;;25.10;100.00;99287.02;1685915;85;21091;-74
2022/07/09 09:39:24;;;;;;;2.95;1.92;;;;;;;25.10;100.00;99280.79;1685913;85;20953;-74
2022/07/09 09:42:02;;;;;;;2.33;1.52;;;;;;;25.12;100.00;99275.53;1686352;85;20881;-75
2022/07/09 09:44:39;;;;;;;3.30;1.72;;;;;;;25.16;100.00;99273.44;1685857;85;21201;-79
2022/07/09 09:47:10;;;;;;;7.35;1.67;;;;;;;25.20;100.00;99271.20;1685770;85;20976;-76
2022/07/09 09:49:42;;;;;;;5.35;2.00;;;;;;;25.22;100.00;99271.55;1686014;84;20949;-75
2022/07/09 09:52:10;;;;;;;4.28;1.60;;;;;;;25.25;100.00;99270.69;1685757;82;20972;-77
2022/07/09 09:54:39;;;;;;;3.37;1.75;;;;;;;25.29;100.00;99268.62;1674079;85;21016;-75
2022/07/09 09:57:13;;;;;;;6.03;1.92;;;;;;;25.35;100.00;99273.16;1685855;84;21201;-76
2022/07/09 09:59:41;;;;;;;;;;;;;;;25.37;100.00;99268.67;1688459;84;21052;-77
2022/07/09 10:02:09;;;;;;;4.15;2.00;;;;;;;25.36;100.00;99268.50;1685876;85;20141;-72
2022/07/09 10:04:41;;;;;;;3.17;1.65;;;;;;;25.26;100.00;99271.69;1686070;85;21121;-72
2022/07/09 10:07:14;;;;;;;3.65;1.70;;;;;;;25.21;100.00;99272.78;1685941;84;21025;-75
2022/07/09 10:09:40;;;;;;;4.95;1.50;;;;;;;25.11;100.00;99271.10;1686084;85;21111;-75
2022/07/09 10:12:11;;;;;;;3.45;2.25;;;;;;;25.00;100.00;99274.10;1685943;85;21504;-71
2022/07/09 10:14:38;;;;;;;3.25;2.47;;;;;;;24.84;100.00;99273.28;1685925;85;21048;-77
2022/07/09 10:17:15;;;;;;;4.62;1.92;;;;;;;24.75;100.00;99278.06;1709489;83;20992;-71
2022/07/09 10:20:10;;;;;;;3.65;2.00;;;;;;;24.71;100.00;99280.72;1710830;84;20968;-72
2022/07/09 10:22:38;;;;;;;4.42;1.95;;;;;;;24.63;100.00;99286.47;1710734;84;21572;-72
2022/07/09 10:25:05;;;;;;;5.22;2.08;;;;;;;24.54;100.00;99286.17;1710296;84;21029;-75
2022/07/09 10:27:49;;;;;;;3.27;2.02;;;;;;;24.44;100.00;99280.88;1710690;84;20955;-69
2022/07/09 10:30:33;;;;;;;1.95;1.55;;;;;;;24.42;100.00;99287.53;1728515;81;21058;-77
2022/07/09 10:33:09;;;;;;;3.75;1.95;;;;;;;24.38;100.00;99284.76;1746211;81;20971;-73
2022/07/09 10:35:45;;;;;;;4.22;2.40;;;;;;;24.48;100.00;99287.24;1746458;81;21578;-73
2022/07/09 10:38:15;;;;;;;5.47;2.90;;;;;;;24.49;100.00;99289.46;1737736;81;21097;-74
2022/07/09 10:40:44;;;;;;;8.03;2.47;;;;;;;24.40;100.00;99289.36;1748680;81;21034;-75
2022/07/09 10:43:11;;;;;;;8.78;2.42;;;;;;;24.39;100.00;99291.20;1738977;81;20992;-71
2022/07/09 10:45:43;;;;;;;9.15;2.55;;;;;;;24.31;100.00;99293.28;1735810;82;20991;-73
2022/07/09 10:48:14;;;;;;;7.60;2.67;;;;;;;24.31;100.00;99296.09;1753419;81;20856;-71
2022/07/09 10:50:45;;;;;;;3.45;2.08;;;;;;;24.22;100.00;99306.47;1761427;80;21323;-69
2022/07/09 10:53:19;;;;;;;6.60;3.08;;;;;;;24.24;100.00;99295.57;1763211;81;20989;-73
2022/07/09 10:56:56;;;;;;;9.43;3.02;;;;;;;24.27;100.00;99300.39;1741577;81;21027;-72
2022/07/09 10:59:24;;;;;;;7.33;2.90;;;;;;;24.34;100.00;99294.47;1738289;82;20994;-71
2022/07/09 11:08:44;;;;;;;5.17;2.12;;;;;;;24.51;100.00;99299.09;1738302;82;20872;-71
2022/07/09 11:15:11;;;;;;;3.92;2.40;;;;;;;24.43;100.00;99299.78;1741723;81;21547;-75
2022/07/09 11:17:39;;;;;;;5.25;3.20;;;;;;;24.43;100.00;99294.75;1723214;82;21524;-75
2022/07/09 11:20:07;;;;;;;6.75;4.53;;;;;;;24.50;100.00;99291.85;1714112;82;21029;-74
2022/07/09 11:22:36;;;;;;;7.62;4.67;;;;;;;24.46;100.00;99298.75;1710806;83;21426;-76
2022/07/09 11:25:03;;;;;;;6.72;3.50;;;;;;;24.49;100.00;99299.31;1708886;83;22204;-72
2022/07/09 11:27:30;;;;;;;5.22;3.75;;;;;;;24.55;100.00;99299.83;1715888;82;21113;-74
2022/07/09 11:29:57;;;;;;;5.75;3.02;;;;;;;24.60;100.00;99299.19;1698968;82;21121;-73
2022/07/09 11:32:25;;;;;;;6.90;2.33;;;;;;;24.67;100.00;99295.66;1699105;83;21047;-72
2022/07/09 11:34:57;;;;;;;3.05;2.35;;;;;;;24.69;100.00;99299.45;1710304;82;21052;-76
2022/07/09 11:37:26;;;;;;;4.67;2.27;;;;;;;24.62;100.00;99297.53;1728211;81;21156;-74
2022/07/09 11:39:54;;;;;;;7.08;2.37;;;;;;;24.62;100.00;99302.35;1712821;82;20933;-76
2022/07/09 11:42:22;;;;;;;3.45;1.90;;;;;;;24.63;100.00;99307.59;1731732;82;21605;-77
2022/07/09 11:45:00;;;;;;;6.20;1.95;;;;;;;24.70;100.00;99308.10;1741518;82;21067;-73